createdAt,value
2022-07-25T00:04:19.000Z,100849.53
2022-07-25T00:09:22.004Z,100840.75
2022-07-25T00:14:26.341Z,100839.91
2022-07-25T00:19:29.207Z,100841.13
2022-07-25T00:24:32.174Z,100834.22
2022-07-25T00:29:37.101Z,100828.53
2022-07-25T00:34:39.912Z,100827.53
2022-07-25T00:39:42.836Z,100828.94
2022-07-25T00:44:47.114Z,100825.94
2022-07-25T00:49:49.934Z,100820.81
2022-07-25T00:54:52.833Z,100825.06
2022-07-25T00:59:56.964Z,100813.47
2022-07-25T01:04:59.810Z,100803.78
2022-07-25T01:10:03.069Z,100806.84
2022-07-25T01:15:08.478Z,100805.00
2022-07-25T01:20:16.652Z,100805.78
2022-07-25T01:25:20.296Z,100801.34
2022-07-25T01:30:24.210Z,100788.13
2022-07-25T01:35:28.410Z,100788.19
2022-07-25T01:40:31.221Z,100782.00
2022-07-25T01:45:34.124Z,100778.94
2022-07-25T01:50:38.457Z,100777.00
2022-07-25T01:55:41.427Z,100771.47
2022-07-25T02:00:44.295Z,100767.09
2022-07-25T02:05:48.482Z,100759.03
2022-07-25T02:10:51.485Z,100755.41
2022-07-25T02:15:54.449Z,100742.25
2022-07-25T02:20:58.632Z,100737.75
2022-07-25T02:26:01.446Z,100728.78
2022-07-25T02:31:04.584Z,100719.00
2022-07-25T02:36:10.268Z,100718.94
2022-07-25T02:41:13.137Z,100716.25
2022-07-25T02:46:16.009Z,100708.50
2022-07-25T02:51:20.226Z,100707.56
2022-07-25T02:56:23.078Z,100701.53
2022-07-25T03:01:26.879Z,100698.84
2022-07-25T03:06:31.234Z,100699.88
2022-07-25T03:11:34.765Z,100694.72
2022-07-25T03:16:37.872Z,100681.97
2022-07-25T03:21:42.120Z,100680.28
2022-07-25T03:26:44.913Z,100672.22
2022-07-25T03:31:48.422Z,100661.75
2022-07-25T03:36:52.718Z,100658.47
2022-07-25T03:41:56.248Z,100654.88
2022-07-25T03:46:59.110Z,100643.31
2022-07-25T03:52:03.757Z,100637.59
2022-07-25T03:57:06.607Z,100633.09
2022-07-25T04:02:09.640Z,100626.22
2022-07-25T04:07:14.134Z,100624.03
2022-07-25T04:12:17.145Z,100621.56
2022-07-25T04:17:20.098Z,100610.34
2022-07-25T04:22:25.271Z,100600.91
2022-07-25T04:27:28.261Z,100590.47
2022-07-25T04:32:31.161Z,100581.22
2022-07-25T04:37:36.085Z,100579.69
2022-07-25T04:42:38.951Z,100570.25
2022-07-25T04:47:41.789Z,100566.03
2022-07-25T04:52:46.021Z,100554.94
2022-07-25T04:57:48.920Z,100545.22
2022-07-25T05:02:52.537Z,100538.47
2022-07-25T05:07:59.051Z,100539.28
2022-07-25T05:13:01.943Z,100538.72
2022-07-25T05:18:05.022Z,100523.91
2022-07-25T05:23:09.409Z,100519.97
2022-07-25T05:28:14.782Z,100508.84
2022-07-25T05:33:17.974Z,100510.09
2022-07-25T05:38:22.218Z,100506.72
2022-07-25T05:43:25.080Z,100500.72
2022-07-25T05:48:28.019Z,100489.66
2022-07-25T05:53:32.607Z,100487.09
2022-07-25T05:58:37.175Z,100484.81
2022-07-25T06:03:40.186Z,100472.69
2022-07-25T06:08:44.333Z,100462.47
2022-07-25T06:13:48.256Z,100459.50
2022-07-25T06:18:51.177Z,100447.41
2022-07-25T06:23:55.742Z,100443.84
2022-07-25T06:28:58.701Z,100445.56
2022-07-25T06:34:01.592Z,100441.28
2022-07-25T06:39:05.755Z,100445.63
2022-07-25T06:44:08.856Z,100429.16
2022-07-25T06:49:12.056Z,100438.59
2022-07-25T06:54:16.257Z,100440.09
2022-07-25T06:59:19.134Z,100434.34
2022-07-25T07:04:21.969Z,100426.31
2022-07-25T07:09:26.136Z,100421.63
2022-07-25T07:14:29.200Z,100410.88
2022-07-25T07:19:32.074Z,100405.56
2022-07-25T07:24:42.843Z,100406.13
2022-07-25T07:29:47.227Z,100388.97
2022-07-25T07:34:50.233Z,100386.38
2022-07-25T07:39:54.468Z,100377.28
2022-07-25T07:44:57.305Z,100374.00
2022-07-25T07:50:00.126Z,100362.91
2022-07-25T07:55:22.175Z,100355.69
2022-07-25T08:00:27.863Z,100347.88
2022-07-25T08:05:31.940Z,100351.13
2022-07-25T08:10:39.882Z,100339.63
2022-07-25T08:15:43.114Z,100330.72
2022-07-25T08:20:46.580Z,100325.59
2022-07-25T08:25:51.138Z,100323.84
2022-07-25T08:30:54.364Z,100317.56
2022-07-25T08:35:58.944Z,100312.56
2022-07-25T08:41:04.221Z,100309.28
2022-07-25T08:46:08.228Z,100296.59
2022-07-25T08:51:11.759Z,100293.09
2022-07-25T08:56:20.825Z,100282.47
2022-07-25T09:01:24.120Z,100279.78
2022-07-25T09:06:27.044Z,100285.44
2022-07-25T09:11:33.372Z,100283.75
2022-07-25T09:16:40.389Z,100277.72
2022-07-25T09:21:46.072Z,100272.97
2022-07-25T09:26:52.688Z,100274.97
2022-07-25T09:31:56.380Z,100268.78
2022-07-25T09:36:59.331Z,100257.53
2022-07-25T09:42:04.107Z,100266.25
2022-07-25T09:47:11.551Z,100258.41
2022-07-25T09:52:14.559Z,100261.28
2022-07-25T09:57:18.850Z,100242.81
2022-07-25T10:02:34.114Z,100241.97
2022-07-25T10:07:39.566Z,100249.34
2022-07-25T10:12:44.172Z,100251.22
2022-07-25T10:17:48.580Z,100240.25
2022-07-25T10:22:56.746Z,100250.44
2022-07-25T10:28:10.160Z,100234.13
2022-07-25T10:33:15.124Z,100230.00
2022-07-25T10:38:25.620Z,100219.44
2022-07-25T10:43:29.878Z,100223.44
2022-07-25T10:48:34.075Z,100225.72
2022-07-25T10:53:39.339Z,100216.22
2022-07-25T10:58:48.647Z,100206.41
2022-07-25T11:03:52.204Z,100215.78
2022-07-25T11:08:57.754Z,100200.97
2022-07-25T11:14:01.998Z,100204.28
2022-07-25T11:19:05.263Z,100205.75
2022-07-25T11:24:08.534Z,100197.66
2022-07-25T11:29:19.750Z,100199.09
2022-07-25T11:34:24.622Z,100190.25
2022-07-25T11:39:28.920Z,100185.56
2022-07-25T11:44:34.927Z,100180.53
2022-07-25T11:49:48.927Z,100174.53
2022-07-25T11:54:56.103Z,100170.69
2022-07-25T12:00:02.396Z,100162.81
2022-07-25T12:05:13.739Z,100141.94
2022-07-25T12:10:18.814Z,100146.56
2022-07-25T12:15:24.877Z,100138.16
2022-07-25T12:20:29.800Z,100136.75
2022-07-25T12:25:33.860Z,100140.97
2022-07-25T12:30:39.008Z,100138.13
2022-07-25T12:35:42.534Z,100146.91
2022-07-25T12:40:45.688Z,100148.19
2022-07-25T12:45:49.886Z,100146.50
2022-07-25T12:50:52.768Z,100145.44
2022-07-25T12:55:55.722Z,100143.44
2022-07-25T13:01:01.296Z,100145.75
2022-07-25T13:06:06.864Z,100150.56
2022-07-25T13:11:09.661Z,100151.16
2022-07-25T13:16:14.559Z,100149.09
2022-07-25T13:21:18.662Z,100147.84
2022-07-25T13:26:21.516Z,100141.16
2022-07-25T13:31:25.845Z,100151.31
2022-07-25T13:36:29.030Z,100138.28
2022-07-25T13:41:31.879Z,100137.47
2022-07-25T13:46:36.267Z,100133.84
2022-07-25T13:51:39.085Z,100137.03
2022-07-25T13:56:42.466Z,100137.72
2022-07-25T14:01:47.466Z,100135.91
2022-07-25T14:06:52.085Z,100132.16
2022-07-25T14:11:55.193Z,100121.13
2022-07-25T14:16:59.411Z,100144.31
2022-07-25T14:22:02.351Z,100157.81
2022-07-25T14:27:05.730Z,100177.19
2022-07-25T14:32:10.030Z,100175.88
2022-07-25T14:37:13.013Z,100189.81
2022-07-25T14:42:16.267Z,100196.38
2022-07-25T14:47:20.644Z,100220.72
2022-07-25T14:52:23.958Z,100224.41
2022-07-25T14:57:27.366Z,100234.34
2022-07-25T15:02:32.247Z,100233.72
2022-07-25T15:07:38.122Z,100241.72
2022-07-25T15:12:40.978Z,100250.53
2022-07-25T15:17:45.331Z,100276.97
2022-07-25T15:22:48.066Z,100282.94
2022-07-25T15:27:50.962Z,100281.00
2022-07-25T15:32:55.115Z,100318.47
2022-07-25T15:37:58.844Z,100381.47
2022-07-25T15:43:01.624Z,100388.50
2022-07-25T15:48:07.861Z,100403.19
2022-07-25T15:53:11.519Z,100362.97
2022-07-25T15:58:14.839Z,100349.56
2022-07-25T16:03:18.984Z,100370.13
2022-07-25T16:08:22.015Z,100376.84
2022-07-25T16:13:24.825Z,100373.59
2022-07-25T16:18:29.048Z,100390.38
2022-07-25T16:23:36.198Z,100391.69
2022-07-25T16:28:41.327Z,100379.38
2022-07-25T16:33:46.171Z,100382.31
2022-07-25T16:38:49.204Z,100370.41
2022-07-25T16:43:52.086Z,100370.19
2022-07-25T16:48:56.498Z,100360.75
2022-07-25T16:53:59.862Z,100357.25
2022-07-25T16:59:02.963Z,100362.34
2022-07-25T17:04:07.932Z,100358.03
2022-07-25T17:09:11.677Z,100347.75
2022-07-25T17:14:14.553Z,100370.81
2022-07-25T17:19:18.781Z,100367.06
2022-07-25T17:24:21.587Z,100377.28
2022-07-25T17:29:24.612Z,100377.56
2022-07-25T17:34:28.834Z,100387.31
2022-07-25T17:39:31.657Z,100389.25
2022-07-25T17:44:34.745Z,100391.75
2022-07-25T17:49:38.901Z,100393.00
2022-07-25T17:54:42.445Z,100392.88
2022-07-25T17:59:45.287Z,100393.38
2022-07-25T18:04:49.598Z,100405.31
2022-07-25T18:09:52.883Z,100404.19
2022-07-25T18:14:55.793Z,100388.72
2022-07-25T18:19:59.952Z,100389.25
2022-07-25T18:25:02.848Z,100398.91
2022-07-25T18:30:07.952Z,100396.75
2022-07-25T18:35:13.100Z,100392.63
2022-07-25T18:40:16.556Z,100395.78
2022-07-25T18:45:19.565Z,100391.53
2022-07-25T18:50:25.210Z,100392.19
2022-07-25T18:55:28.116Z,100402.47
2022-07-25T19:00:30.920Z,100406.47
2022-07-25T19:05:35.424Z,100411.38
2022-07-25T19:10:38.420Z,100411.75
2022-07-25T19:15:41.349Z,100434.03
2022-07-25T19:20:45.704Z,100431.09
2022-07-25T19:25:49.465Z,100439.63
2022-07-25T19:30:52.770Z,100450.97
2022-07-25T19:35:57.022Z,100461.63
2022-07-25T19:41:00.751Z,100467.09
2022-07-25T19:46:04.088Z,100475.34
2022-07-25T19:51:08.536Z,100477.09
2022-07-25T19:56:11.449Z,100489.84
2022-07-25T20:01:14.624Z,100487.78
2022-07-25T20:06:20.519Z,100495.00
2022-07-25T20:11:23.434Z,100493.06
2022-07-25T20:16:26.339Z,100493.31
2022-07-25T20:21:30.894Z,100500.84
2022-07-25T20:26:33.853Z,100508.47
2022-07-25T20:31:36.926Z,100507.59
2022-07-25T20:36:41.403Z,100522.22
2022-07-25T20:41:44.673Z,100523.94
2022-07-25T20:46:47.928Z,100528.25
2022-07-25T20:51:54.564Z,100531.56
2022-07-25T20:56:57.739Z,100535.34
2022-07-25T21:02:00.951Z,100531.22
2022-07-25T21:07:05.698Z,100536.84
2022-07-25T21:12:10.669Z,100535.94
2022-07-25T21:17:13.598Z,100531.88
2022-07-25T21:22:17.914Z,100541.44
2022-07-25T21:27:21.353Z,100544.81
2022-07-25T21:32:24.179Z,100544.72
2022-07-25T21:37:28.425Z,100553.25
2022-07-25T21:42:31.414Z,100545.56
2022-07-25T21:47:34.341Z,100543.25
2022-07-25T21:52:38.563Z,100541.53
2022-07-25T21:57:41.415Z,100541.16
2022-07-25T22:02:45.031Z,100549.63
2022-07-25T22:07:49.388Z,100544.47
2022-07-25T22:12:52.555Z,100535.06
2022-07-25T22:17:55.439Z,100533.31
2022-07-25T22:23:00.088Z,100540.94
2022-07-25T22:28:02.911Z,100536.69
2022-07-25T22:33:05.755Z,100530.38
2022-07-25T22:38:10.065Z,100537.78
2022-07-25T22:43:12.872Z,100545.56
2022-07-25T22:48:15.707Z,100545.66
2022-07-25T22:53:19.883Z,100553.53
2022-07-25T22:58:22.672Z,100558.50
2022-07-25T23:03:25.521Z,100556.91
2022-07-25T23:08:35.666Z,100566.25
2022-07-25T23:13:38.512Z,100568.38
2022-07-25T23:18:41.343Z,100567.75
2022-07-25T23:23:45.806Z,100562.72
2022-07-25T23:28:48.652Z,100572.50
2022-07-25T23:33:51.464Z,100573.34
2022-07-25T23:38:55.590Z,100572.06
2022-07-25T23:44:00.494Z,100569.50
2022-07-25T23:49:03.397Z,100557.28
2022-07-25T23:54:07.749Z,100562.72
2022-07-25T23:59:11.191Z,100569.09
